Time;durP1;ratioP1;P1;durP2;ratioP2;P2;SDS_P1;SDS_P2;PMS_P1;PMS_P2;Temp;Humidity;BMP_temperature;BMP_pressure;BME280_temperature;BME280_humidity;BME280_pressure;Samples;Min_cycle;Max_cycle;Signal;HPM_P1;HPM_P2
2023/04/11 00:00:35;;;;;;;3.05;1.75;;;12.80;1.00;;;;;;6198633;23;20021;-91
2023/04/11 00:03:22;;;;;;;2.45;1.55;;;12.80;1.00;;;;;;6197137;23;20025;-90
2023/04/11 00:06:12;;;;;;;3.75;1.52;;;12.80;1.00;;;;;;6196288;23;20111;-92
2023/04/11 00:09:01;;;;;;;2.38;1.60;;;12.80;1.00;;;;;;6194354;23;20428;-92
2023/04/11 00:11:56;;;;;;;6.45;1.60;;;12.90;1.00;;;;;;6218876;23;20032;-91
2023/04/11 00:14:47;;;;;;;3.88;1.88;;;12.90;1.00;;;;;;6229446;23;20036;-90
2023/04/11 00:17:36;;;;;;;2.10;1.48;;;12.90;1.00;;;;;;6226300;23;20039;-88
2023/04/11 00:20:24;;;;;;;2.08;1.58;;;12.90;1.00;;;;;;6183801;23;20035;-89
2023/04/11 00:23:12;;;;;;;2.63;1.50;;;12.90;1.00;;;;;;6223945;23;20031;-91
2023/04/11 00:25:59;;;;;;;5.20;1.98;;;12.80;1.00;;;;;;6201820;23;20084;-91
2023/04/11 00:28:46;;;;;;;6.03;2.03;;;12.80;1.00;;;;;;6223250;23;20490;-91
2023/04/11 00:31:34;;;;;;;4.50;1.77;;;12.80;1.00;;;;;;6218567;23;20086;-90
2023/04/11 00:34:24;;;;;;;2.90;1.67;;;12.70;1.00;;;;;;6197979;23;20032;-92
2023/04/11 00:37:13;;;;;;;3.95;1.90;;;12.80;1.00;;;;;;6220176;23;20424;-90
2023/04/11 00:40:00;;;;;;;8.18;1.80;;;12.80;1.00;;;;;;6222173;23;20020;-92
2023/04/11 00:42:47;;;;;;;3.22;1.60;;;12.80;1.00;;;;;;6219288;23;20035;-89
2023/04/11 00:45:35;;;;;;;7.70;1.65;;;12.80;1.00;;;;;;6218471;23;20021;-90
2023/04/11 00:48:27;;;;;;;2.20;1.70;;;12.90;1.00;;;;;;6224597;23;20029;-90
2023/04/11 00:51:14;;;;;;;6.45;1.80;;;12.80;1.00;;;;;;6205845;23;20035;-90
2023/04/11 00:54:02;;;;;;;4.75;1.90;;;12.90;1.00;;;;;;6205583;23;20029;-91
2023/04/11 00:56:52;;;;;;;2.50;1.60;;;12.90;1.00;;;;;;6222168;23;20039;-91
2023/04/11 00:59:40;;;;;;;3.20;1.70;;;12.80;1.00;;;;;;6195842;23;20375;-91
2023/04/11 01:02:28;;;;;;;2.85;2.05;;;12.80;1.00;;;;;;6223347;23;20373;-93
2023/04/11 01:05:18;;;;;;;2.60;1.60;;;12.80;1.00;;;;;;6197426;23;20025;-91
2023/04/11 01:08:13;;;;;;;3.60;1.90;;;12.80;1.00;;;;;;6220191;23;20024;-93
2023/04/11 01:11:05;;;;;;;3.03;1.73;;;12.70;1.00;;;;;;6218886;23;20091;-91
2023/04/11 01:13:53;;;;;;;3.25;1.58;;;12.60;1.00;;;;;;6219850;23;20083;-93
2023/04/11 01:16:42;;;;;;;2.50;1.58;;;12.60;1.00;;;;;;6199595;23;20024;-93
2023/04/11 01:19:31;;;;;;;3.72;1.60;;;12.60;1.00;;;;;;6200378;23;20035;-90
2023/04/11 01:22:21;;;;;;;3.08;1.70;;;12.60;1.00;;;;;;6219615;23;20080;-90
2023/04/11 01:25:14;;;;;;;2.63;1.70;;;12.60;1.00;;;;;;6198157;23;20029;-91
2023/04/11 01:28:04;;;;;;;2.50;1.48;;;12.60;1.00;;;;;;6221260;23;20024;-92
2023/04/11 01:31:02;;;;;;;5.00;2.05;;;12.50;1.00;;;;;;6198963;23;20060;-91
2023/04/11 01:34:04;;;;;;;2.05;1.38;;;12.50;1.00;;;;;;6225482;23;20029;-89
2023/04/11 01:36:51;;;;;;;4.05;1.80;;;12.40;1.00;;;;;;6208955;23;20029;-90
2023/04/11 01:39:39;;;;;;;5.35;1.52;;;12.30;2.50;;;;;;6225982;23;20104;-93
2023/04/11 01:42:29;;;;;;;5.68;1.90;;;12.40;17.50;;;;;;6216797;23;20021;-91
2023/04/11 01:45:20;;;;;;;4.25;2.10;;;12.10;38.50;;;;;;6219034;23;20047;-91
2023/04/11 01:48:10;;;;;;;4.32;2.53;;;11.80;62.30;;;;;;6196793;23;20113;-92
2023/04/11 01:51:03;;;;;;;9.07;2.03;;;11.60;92.00;;;;;;6201685;23;20040;-91
2023/04/11 01:53:53;;;;;;;5.57;2.00;;;11.50;99.90;;;;;;6221641;23;20051;-94
2023/04/11 01:56:45;;;;;;;8.13;1.90;;;11.40;99.90;;;;;;6203674;23;20025;-93
2023/04/11 01:59:37;;;;;;;3.13;2.17;;;11.30;99.90;;;;;;6208398;23;20059;-90
2023/04/11 02:02:25;;;;;;;4.70;2.22;;;11.30;99.90;;;;;;6220394;23;20024;-92
2023/04/11 02:05:12;;;;;;;4.63;2.30;;;11.20;99.90;;;;;;6221412;23;20036;-93
2023/04/11 02:08:00;;;;;;;4.53;2.30;;;11.10;99.90;;;;;;6199942;23;20328;-91
2023/04/11 02:10:52;;;;;;;4.20;2.25;;;11.00;99.90;;;;;;6200942;23;20025;-92
2023/04/11 02:13:43;;;;;;;3.58;2.45;;;10.80;99.90;;;;;;6218830;23;20106;-92
2023/04/11 02:16:30;;;;;;;4.43;2.40;;;10.60;99.90;;;;;;6221176;23;20036;-91
2023/04/11 02:19:19;;;;;;;4.75;2.72;;;10.40;1.00;;;;;;6202020;23;20446;-92
2023/04/11 02:22:15;;;;;;;5.45;2.70;;;10.30;1.00;;;;;;6202213;23;20428;-91
2023/04/11 02:25:02;;;;;;;5.60;2.60;;;10.20;99.90;;;;;;6202528;23;20024;-92
2023/04/11 02:27:50;;;;;;;3.22;2.42;;;10.00;99.90;;;;;;6222591;23;20029;-90
2023/04/11 02:30:37;;;;;;;5.90;2.60;;;9.90;1.00;;;;;;6223215;23;20041;-91
2023/04/11 02:33:25;;;;;;;4.05;2.63;;;9.80;99.90;;;;;;6218933;23;20055;-93
2023/04/11 02:36:13;;;;;;;2.22;2.03;;;9.70;1.00;;;;;;6222788;23;20035;-93
2023/04/11 02:39:09;;;;;;;2.80;2.05;;;9.60;99.90;;;;;;6205316;23;20072;-90
2023/04/11 02:42:04;;;;;;;4.30;2.35;;;9.50;99.90;;;;;;6205751;23;20076;-92
2023/04/11 02:44:56;;;;;;;3.35;1.50;;;9.50;99.90;;;;;;6223392;23;20094;-92
2023/04/11 02:47:43;;;;;;;1.48;1.35;;;9.40;1.00;;;;;;6220162;23;20032;-93
2023/04/11 02:50:33;;;;;;;2.45;1.10;;;9.20;99.90;;;;;;6208740;23;20024;-92
2023/04/11 02:53:21;;;;;;;7.38;1.27;;;9.00;99.90;;;;;;6209739;23;20033;-90
2023/04/11 02:56:09;;;;;;;4.43;1.38;;;8.90;71.30;;;;;;6226136;23;20067;-93
2023/04/11 02:58:57;;;;;;;3.17;1.30;;;8.80;99.90;;;;;;6221497;23;20025;-93
2023/04/11 03:01:45;;;;;;;6.13;1.52;;;8.80;1.00;;;;;;6200990;23;20125;-92
2023/04/11 03:04:32;;;;;;;1.98;1.15;;;8.70;1.00;;;;;;6202028;23;20021;-93
2023/04/11 03:07:20;;;;;;;1.48;1.00;;;8.70;84.40;;;;;;6198338;23;20035;-94
2023/04/11 03:10:08;;;;;;;1.50;1.30;;;8.60;99.90;;;;;;6200478;23;20040;-93
2023/04/11 03:12:55;;;;;;;2.35;1.50;;;8.60;99.90;;;;;;6221374;23;20031;-93
2023/04/11 03:15:45;;;;;;;1.40;1.20;;;8.50;99.90;;;;;;6198792;23;20052;-93
2023/04/11 03:18:32;;;;;;;3.53;1.25;;;8.50;99.90;;;;;;6198967;23;20028;-93
2023/04/11 03:21:20;;;;;;;3.80;1.60;;;8.50;99.90;;;;;;6216716;23;20029;-92
2023/04/11 03:24:11;;;;;;;5.20;1.58;;;8.50;99.90;;;;;;6195692;23;20024;-93
2023/04/11 03:27:00;;;;;;;2.28;1.40;;;8.50;99.90;;;;;;6196698;23;20110;-93
2023/04/11 03:29:51;;;;;;;1.40;1.27;;;8.40;99.90;;;;;;6220018;23;20032;-93
2023/04/11 03:32:39;;;;;;;3.95;1.58;;;8.40;99.90;;;;;;6197426;23;20020;-94
2023/04/11 03:35:27;;;;;;;4.40;1.60;;;8.40;99.90;;;;;;6219104;23;20110;-93
2023/04/11 03:38:15;;;;;;;3.10;1.20;;;8.40;99.90;;;;;;6219824;23;20063;-91
2023/04/11 03:41:03;;;;;;;3.80;1.15;;;8.30;99.90;;;;;;6223307;23;20119;-92
2023/04/11 03:43:51;;;;;;;3.90;1.65;;;8.30;99.90;;;;;;6221425;23;20020;-93
2023/04/11 03:46:43;;;;;;;2.28;1.30;;;8.30;99.90;;;;;;6204061;23;20032;-90
2023/04/11 03:49:30;;;;;;;3.78;1.30;;;8.30;99.90;;;;;;6224473;23;20383;-91
2023/04/11 03:52:22;;;;;;;4.35;1.75;;;8.30;99.90;;;;;;6227399;23;20021;-92
2023/04/11 03:55:11;;;;;;;4.30;1.58;;;8.30;99.90;;;;;;6207370;23;20040;-92
2023/04/11 03:57:58;;;;;;;2.45;1.40;;;8.30;99.90;;;;;;6209364;23;20331;-93
2023/04/11 04:00:47;;;;;;;2.47;1.30;;;8.40;99.90;;;;;;6220287;23;20021;-90
2023/04/11 04:08:11;;;;;;;5.13;1.40;;;8.30;99.90;;;;;;6234483;23;20019;-92
2023/04/11 04:15:03;;;;;;;1.50;0.75;;;8.20;99.90;;;;;;6011897;23;20032;-93
2023/04/11 04:31:13;;;;;;;3.92;1.60;;;8.20;99.90;;;;;;5823788;24;20027;-91
2023/04/11 04:34:11;;;;;;;3.45;1.30;;;8.20;99.90;;;;;;5819327;24;20019;-91
2023/04/11 04:36:58;;;;;;;2.00;1.20;;;8.20;99.90;;;;;;5898631;24;20021;-88
2023/04/11 04:39:44;;;;;;;1.48;1.02;;;8.10;99.90;;;;;;5967636;23;20019;-85
2023/04/11 04:42:35;;;;;;;3.70;1.20;;;8.00;99.90;;;;;;6090987;23;20497;-88
2023/04/11 04:45:22;;;;;;;2.63;1.20;;;7.90;99.90;;;;;;6190126;23;20036;-86
2023/04/11 04:48:10;;;;;;;2.75;1.00;;;7.80;99.90;;;;;;6213095;23;20090;-87
2023/04/11 04:50:57;;;;;;;1.23;0.93;;;7.70;99.90;;;;;;6214555;23;20024;-87
2023/04/11 04:53:45;;;;;;;1.85;0.88;;;7.60;99.90;;;;;;6192472;23;20077;-85
2023/04/11 04:56:32;;;;;;;0.75;0.75;;;7.50;99.90;;;;;;6215162;23;20025;-89
2023/04/11 04:59:19;;;;;;;3.47;1.08;;;7.50;99.90;;;;;;6227909;23;20036;-87
2023/04/11 05:02:06;;;;;;;1.40;0.90;;;7.40;99.90;;;;;;6210095;23;20048;-88
2023/04/11 05:04:54;;;;;;;1.20;0.80;;;7.40;99.90;;;;;;6230479;23;20039;-86
2023/04/11 05:07:41;;;;;;;3.30;1.00;;;7.30;99.90;;;;;;6237075;23;20047;-87
2023/04/11 05:10:32;;;;;;;1.95;1.20;;;7.30;99.90;;;;;;6240275;23;20009;-87
2023/04/11 05:13:20;;;;;;;1.10;0.70;;;7.30;99.90;;;;;;6220533;23;20032;-92
2023/04/11 05:16:10;;;;;;;1.50;1.00;;;7.30;99.90;;;;;;6212775;23;20063;-90
2023/04/11 05:18:57;;;;;;;7.95;3.47;;;7.20;99.90;;;;;;6211091;23;20029;-92
2023/04/11 05:21:44;;;;;;;5.60;2.03;;;7.20;99.90;;;;;;6214225;23;20028;-93
2023/04/11 05:24:32;;;;;;;3.97;1.05;;;7.20;99.90;;;;;;6203989;23;20024;-91
2023/04/11 05:27:22;;;;;;;1.95;1.42;;;7.10;99.90;;;;;;6228996;23;20086;-91
2023/04/11 05:30:10;;;;;;;3.42;1.30;;;7.00;99.90;;;;;;6229641;23;20024;-91
2023/04/11 05:32:59;;;;;;;2.65;1.25;;;6.80;99.90;;;;;;6228179;23;20020;-92
2023/04/11 05:35:47;;;;;;;2.90;1.40;;;6.60;99.90;;;;;;6210246;23;20028;-89
2023/04/11 05:38:34;;;;;;;4.40;1.48;;;6.50;1.00;;;;;;6173375;23;20343;-91
2023/04/11 05:41:28;;;;;;;4.07;1.45;;;6.40;99.90;;;;;;6216067;23;20167;-91
2023/04/11 06:01:17;;;;;;;7.72;2.03;;;6.30;99.90;;;;;;6103733;23;20022;-92
2023/04/11 06:23:06;;;;;;;10.05;3.00;;;6.30;1.00;;;;;;6128680;23;20100;-91
2023/04/11 06:31:16;;;;;;;6.78;2.05;;;6.40;99.90;;;;;;6043848;23;20011;-90
2023/04/11 11:28:32;;;;;;;6.95;1.80;;;14.00;99.90;;;;;;6210727;23;20401;-89
2023/04/11 14:35:41;;;;;;;5.43;1.58;;;16.70;1.00;;;;;;6130610;23;20061;-91
2023/04/11 14:39:17;;;;;;;2.42;1.23;;;17.10;1.00;;;;;;6122540;23;20061;-93
2023/04/11 14:46:43;;;;;;;7.35;1.52;;;17.40;1.00;;;;;;5953096;23;20113;-91
2023/04/11 14:53:40;;;;;;;5.85;1.40;;;14.60;1.00;;;;;;6093987;23;20027;-90
2023/04/11 15:01:23;;;;;;;6.57;1.70;;;13.50;1.00;;;;;;6062462;23;20026;-92
2023/04/11 15:04:31;;;;;;;7.78;2.10;;;13.80;1.00;;;;;;6102073;23;20374;-92
2023/04/11 15:07:40;;;;;;;6.13;1.83;;;13.50;1.00;;;;;;6098403;23;20544;-92
2023/04/11 15:10:44;;;;;;;5.82;1.80;;;13.20;1.00;;;;;;6096923;23;20033;-91
2023/04/11 15:13:52;;;;;;;;;;;;;;;;;;;;;
2023/04/11 15:17:50;;;;;;;;;;;;;;;;;;;;;
2023/04/11 15:20:56;;;;;;;5.28;1.75;;;14.00;1.00;;;;;;6069313;23;20033;-92
2023/04/11 15:24:06;;;;;;;7.90;1.70;;;14.10;1.00;;;;;;6158285;23;20455;-91
2023/04/11 15:27:02;;;;;;;3.95;1.48;;;14.40;1.00;;;;;;6137713;23;20378;-91
2023/04/11 15:30:18;;;;;;;8.73;1.45;;;14.70;1.00;;;;;;6156951;23;20025;-90
2023/04/11 15:33:26;;;;;;;7.97;1.55;;;14.20;1.00;;;;;;6141151;23;20101;-91
2023/04/11 15:37:12;;;;;;;8.05;1.90;;;13.80;1.00;;;;;;6147034;23;20029;-92
2023/04/11 15:44:13;;;;;;;6.25;1.85;;;14.60;1.00;;;;;;6045920;23;20087;-90
2023/04/11 15:47:17;;;;;;;6.22;1.52;;;15.80;1.00;;;;;;6044940;23;20031;-89
2023/04/11 15:50:07;;;;;;;5.18;1.52;;;15.90;1.00;;;;;;6034740;23;20042;-93
2023/04/11 15:52:57;;;;;;;4.85;1.77;;;15.20;1.00;;;;;;6057061;23;20054;-91
2023/04/11 15:55:46;;;;;;;4.85;1.65;;;15.50;1.00;;;;;;6033502;23;20038;-89
2023/04/11 16:01:22;;;;;;;7.43;2.03;;;15.10;1.00;;;;;;6225564;23;20012;-90
2023/04/11 16:04:44;;;;;;;7.20;1.58;;;14.10;1.00;;;;;;6240355;23;20019;-90
2023/04/11 16:07:52;;;;;;;7.22;1.83;;;13.30;1.00;;;;;;6238343;23;20112;-90
2023/04/11 16:15:06;;;;;;;9.52;2.53;;;14.70;1.00;;;;;;6233123;23;20078;-91
2023/04/11 16:17:59;;;;;;;6.20;1.77;;;15.40;1.00;;;;;;6223504;23;20034;-89
2023/04/11 16:20:58;;;;;;;8.10;1.60;;;15.40;1.00;;;;;;6231134;23;20054;-90
2023/04/11 16:24:24;;;;;;;6.68;2.10;;;14.80;1.00;;;;;;6240480;23;20016;-88
2023/04/11 16:27:12;;;;;;;6.30;1.58;;;14.00;1.00;;;;;;6239160;23;20055;-89
2023/04/11 16:34:21;;;;;;;6.43;1.67;;;13.80;1.00;;;;;;6137836;23;20057;-89
2023/04/11 16:43:39;;;;;;;5.53;1.30;;;12.90;1.00;;;;;;6205884;23;20025;-88
2023/04/11 16:47:46;;;;;;;;;;;;;;;;;;;;;
2023/04/11 17:07:38;;;;;;;6.07;1.80;;;11.30;1.00;;;;;;5926397;24;20028;-91
2023/04/11 17:11:35;;;;;;;4.60;1.67;;;11.10;1.00;;;;;;6026730;23;20055;-90
2023/04/11 17:14:49;;;;;;;6.53;2.65;;;11.00;1.00;;;;;;6037799;23;20038;-90
2023/04/11 17:18:17;;;;;;;9.30;2.70;;;10.90;1.00;;;;;;6106458;23;20065;-92
2023/04/11 17:26:11;;;;;;;6.63;2.22;;;10.70;1.00;;;;;;6101299;23;20014;-90
2023/04/11 17:29:05;;;;;;;6.97;2.35;;;10.60;1.00;;;;;;6093439;23;20045;-92
2023/04/11 17:32:57;;;;;;;5.47;1.85;;;10.60;1.00;;;;;;6108646;23;20026;-90
2023/04/11 17:40:48;;;;;;;12.18;2.38;;;10.40;1.00;;;;;;6098243;23;20006;-89
2023/04/11 17:43:49;;;;;;;8.27;2.80;;;10.20;1.00;;;;;;6189351;23;20103;-91
2023/04/11 17:46:37;;;;;;;8.45;1.90;;;10.10;1.00;;;;;;6195679;23;20035;-88
2023/04/11 17:49:27;;;;;;;9.70;2.90;;;10.10;1.00;;;;;;6194963;23;20035;-90
2023/04/11 17:52:15;;;;;;;12.45;5.55;;;10.00;1.00;;;;;;6217259;23;20116;-90
2023/04/11 17:55:05;;;;;;;15.20;6.30;;;10.00;1.00;;;;;;6198755;23;20095;-90
2023/04/11 17:57:52;;;;;;;8.43;3.30;;;9.90;1.00;;;;;;6217473;23;20103;-89
2023/04/11 18:00:40;;;;;;;7.88;2.03;;;9.80;1.00;;;;;;6196547;23;20034;-90
2023/04/11 18:03:46;;;;;;;7.70;2.10;;;9.80;1.00;;;;;;6197629;23;20035;-90
2023/04/11 18:06:40;;;;;;;3.97;1.50;;;9.70;1.00;;;;;;6216557;23;20539;-92
2023/04/11 18:09:30;;;;;;;7.45;2.58;;;9.70;1.00;;;;;;6218168;23;20107;-90
2023/04/11 18:12:18;;;;;;;13.35;2.30;;;9.70;1.00;;;;;;6221030;23;20332;-91
2023/04/11 18:15:15;;;;;;;11.07;2.28;;;9.60;1.00;;;;;;6216669;23;20043;-89
2023/04/11 18:18:08;;;;;;;12.23;2.55;;;9.50;1.00;;;;;;6216338;23;20379;-91
2023/04/11 18:21:02;;;;;;;8.18;2.17;;;9.50;1.00;;;;;;6214994;23;20033;-91
2023/04/11 18:23:53;;;;;;;5.78;2.00;;;9.40;1.00;;;;;;6217003;23;20136;-89
2023/04/11 18:26:46;;;;;;;7.40;2.05;;;9.30;1.00;;;;;;6214864;23;20039;-91
2023/04/11 18:29:36;;;;;;;6.80;2.38;;;9.30;1.00;;;;;;6196276;23;20136;-88
2023/04/11 18:32:24;;;;;;;9.38;2.30;;;9.30;1.00;;;;;;6215526;23;20042;-90
2023/04/11 18:35:26;;;;;;;5.38;2.13;;;9.20;1.00;;;;;;6197156;23;20031;-90
2023/04/11 18:38:14;;;;;;;8.60;2.22;;;9.10;1.00;;;;;;6216091;23;20108;-90
2023/04/11 18:41:02;;;;;;;9.02;2.63;;;9.00;1.00;;;;;;6194884;23;20039;-90
2023/04/11 18:43:56;;;;;;;9.18;2.22;;;9.00;1.00;;;;;;6195466;23;20028;-91
2023/04/11 18:46:45;;;;;;;6.88;2.47;;;8.90;2.10;;;;;;6217462;23;20020;-90
2023/04/11 18:49:37;;;;;;;11.38;3.63;;;9.00;5.60;;;;;;6194548;23;20029;-89
2023/04/11 18:52:28;;;;;;;10.35;3.38;;;8.90;9.00;;;;;;6212558;23;20024;-89
2023/04/11 18:55:15;;;;;;;15.60;4.47;;;8.80;11.80;;;;;;6234488;23;20029;-90
2023/04/11 18:58:08;;;;;;;24.20;5.18;;;8.80;15.90;;;;;;6217113;23;20036;-86
2023/04/11 19:01:01;;;;;;;9.55;4.10;;;8.70;19.40;;;;;;6237820;23;20012;-89
2023/04/11 19:04:01;;;;;;;10.23;4.30;;;8.60;24.50;;;;;;6209414;23;20090;-89
2023/04/11 19:06:50;;;;;;;12.10;4.22;;;8.50;32.80;;;;;;6222866;23;20471;-90
2023/04/11 19:09:39;;;;;;;10.35;3.90;;;8.30;38.90;;;;;;6221772;23;20128;-91
2023/04/11 19:12:29;;;;;;;8.88;3.55;;;8.30;45.00;;;;;;6219289;23;20034;-90
2023/04/11 19:15:21;;;;;;;9.82;3.38;;;8.30;40.60;;;;;;6198545;23;20028;-90
2023/04/11 19:18:10;;;;;;;11.23;2.92;;;8.40;37.80;;;;;;6201419;23;20055;-90
2023/04/11 19:20:58;;;;;;;8.23;3.40;;;8.40;37.50;;;;;;6205565;23;20028;-89
2023/04/11 19:23:47;;;;;;;7.63;3.10;;;8.20;43.70;;;;;;6209466;23;20024;-89
2023/04/11 19:26:35;;;;;;;10.75;3.15;;;8.10;57.40;;;;;;6205585;23;20115;-92
2023/04/11 19:29:23;;;;;;;18.52;8.82;;;8.10;45.90;;;;;;6199672;23;20047;-90
2023/04/11 19:32:12;;;;;;;12.90;5.88;;;8.10;49.20;;;;;;6217892;23;20035;-91
2023/04/11 19:35:01;;;;;;;17.38;5.70;;;8.00;64.70;;;;;;6216093;23;20024;-90
2023/04/11 19:37:50;;;;;;;12.50;4.43;;;7.90;74.70;;;;;;6197967;23;20111;-89
2023/04/11 19:40:38;;;;;;;9.75;4.35;;;7.90;77.20;;;;;;6218275;23;20331;-90
2023/04/11 19:43:30;;;;;;;14.75;4.38;;;7.90;87.40;;;;;;6197320;23;20024;-90
2023/04/11 19:46:20;;;;;;;11.18;4.13;;;7.90;91.70;;;;;;6217527;23;20293;-91
2023/04/11 19:49:07;;;;;;;15.95;4.63;;;7.80;93.30;;;;;;6196487;23;20028;-90
2023/04/11 19:51:57;;;;;;;8.75;4.15;;;7.80;94.90;;;;;;6224081;23;20028;-90
2023/04/11 19:54:44;;;;;;;13.75;5.28;;;7.80;98.60;;;;;;6234189;23;20021;-91
2023/04/11 19:57:35;;;;;;;15.95;5.97;;;7.70;99.90;;;;;;6225792;23;20076;-91
2023/04/11 20:00:23;;;;;;;8.57;4.32;;;7.70;99.90;;;;;;6216363;23;20078;-91
2023/04/11 20:03:13;;;;;;;10.45;4.18;;;7.70;99.90;;;;;;6197071;23;20324;-90
2023/04/11 20:06:02;;;;;;;12.88;4.07;;;7.70;99.90;;;;;;6220314;23;20632;-89
2023/04/11 20:08:55;;;;;;;8.35;3.17;;;7.70;99.90;;;;;;6217993;23;20078;-90
2023/04/11 20:11:45;;;;;;;10.25;3.40;;;7.80;99.70;;;;;;6217492;23;20104;-90
2023/04/11 20:14:33;;;;;;;11.95;2.83;;;7.80;98.80;;;;;;6218533;23;20052;-92
2023/04/11 20:17:21;;;;;;;13.27;2.88;;;7.80;96.10;;;;;;6199295;23;20071;-89
2023/04/11 20:20:15;;;;;;;8.90;2.42;;;7.90;93.70;;;;;;6217876;23;20103;-91
2023/04/11 20:23:04;;;;;;;6.38;3.03;;;7.90;93.40;;;;;;6198732;23;20016;-90
2023/04/11 20:25:52;;;;;;;10.02;2.83;;;7.90;90.50;;;;;;6217309;23;20052;-91
2023/04/11 20:28:39;;;;;;;6.20;3.13;;;7.90;90.10;;;;;;6217232;23;20107;-91
2023/04/11 20:31:28;;;;;;;7.45;3.90;;;7.90;91.90;;;;;;6201735;23;20027;-90
2023/04/11 20:34:15;;;;;;;13.80;4.95;;;7.80;86.40;;;;;;6203975;23;20028;-89
2023/04/11 20:37:03;;;;;;;11.57;4.07;;;7.90;83.10;;;;;;6223240;23;20462;-89
2023/04/11 20:39:52;;;;;;;9.35;3.10;;;7.90;82.00;;;;;;6198929;23;20033;-89
2023/04/11 20:42:41;;;;;;;8.52;3.10;;;7.90;81.40;;;;;;6221711;23;20108;-89
2023/04/11 20:45:32;;;;;;;11.70;3.90;;;7.90;82.20;;;;;;6198807;23;20023;-91
2023/04/11 20:48:20;;;;;;;7.05;3.15;;;7.90;80.10;;;;;;6219430;23;20053;-91
2023/04/11 20:51:08;;;;;;;9.70;2.63;;;7.90;75.20;;;;;;6206795;23;20039;-90
2023/04/11 20:53:59;;;;;;;8.50;2.63;;;7.90;77.70;;;;;;6197793;23;20388;-88
2023/04/11 20:56:48;;;;;;;7.80;2.75;;;7.90;70.40;;;;;;6181330;23;20102;-91
2023/04/11 20:59:37;;;;;;;11.00;3.20;;;7.90;68.90;;;;;;6220338;23;20395;-90
2023/04/11 21:02:27;;;;;;;7.22;2.70;;;7.90;69.00;;;;;;6199480;23;20031;-90
2023/04/11 21:05:20;;;;;;;7.63;2.58;;;7.90;75.30;;;;;;6186172;23;20032;-89
2023/04/11 21:08:10;;;;;;;5.68;3.03;;;7.80;76.00;;;;;;6219786;23;20025;-90
2023/04/11 21:10:58;;;;;;;12.57;3.95;;;7.80;85.30;;;;;;6219343;23;20024;-90
2023/04/11 21:13:49;;;;;;;9.65;3.33;;;7.80;85.70;;;;;;6198820;23;20112;-90
2023/04/11 21:16:39;;;;;;;11.15;3.38;;;7.70;95.10;;;;;;6217052;23;20033;-90
2023/04/11 21:19:29;;;;;;;10.68;3.63;;;7.70;94.50;;;;;;6197995;23;20439;-91
2023/04/11 21:22:16;;;;;;;10.00;3.22;;;7.70;99.00;;;;;;6201419;23;20432;-92
2023/04/11 21:25:05;;;;;;;12.20;3.72;;;7.60;99.90;;;;;;6199715;23;20020;-91
2023/04/11 21:27:54;;;;;;;9.80;3.58;;;7.60;99.90;;;;;;6201171;23;20024;-91
2023/04/11 21:30:42;;;;;;;8.48;3.42;;;7.50;99.90;;;;;;6200328;23;20028;-92
2023/04/11 21:33:30;;;;;;;29.85;13.70;;;7.50;99.90;;;;;;6177435;23;20442;-92
2023/04/11 21:36:17;;;;;;;11.95;5.43;;;7.50;99.90;;;;;;6198457;23;20036;-90
2023/04/11 21:39:08;;;;;;;16.42;5.75;;;7.60;99.90;;;;;;6200273;23;20128;-91
2023/04/11 21:42:00;;;;;;;8.10;3.50;;;7.60;99.90;;;;;;6220103;23;20157;-92
2023/04/11 21:44:47;;;;;;;6.22;2.78;;;7.70;99.90;;;;;;6197255;23;20392;-91
2023/04/11 21:47:39;;;;;;;8.05;2.80;;;7.60;99.90;;;;;;6220223;23;20024;-91
2023/04/11 21:50:28;;;;;;;8.80;3.00;;;7.60;99.90;;;;;;6195676;23;20463;-92
2023/04/11 21:53:15;;;;;;;8.52;2.70;;;7.70;99.90;;;;;;6219459;23;20025;-92
2023/04/11 21:56:05;;;;;;;9.80;2.63;;;7.60;99.90;;;;;;6200302;23;20036;-91
2023/04/11 21:58:53;;;;;;;14.48;2.88;;;7.60;99.90;;;;;;6208843;23;20039;-90
2023/04/11 22:01:40;;;;;;;8.43;2.88;;;7.60;99.20;;;;;;6214519;23;20055;-90
2023/04/11 22:04:30;;;;;;;9.45;2.63;;;7.60;99.60;;;;;;6214380;23;20044;-91
2023/04/11 22:07:22;;;;;;;5.70;2.22;;;7.60;99.90;;;;;;6201585;23;20090;-90
2023/04/11 22:10:36;;;;;;;8.52;2.42;;;7.60;99.90;;;;;;6204277;23;20012;-91
2023/04/11 22:13:33;;;;;;;9.23;2.90;;;7.50;99.90;;;;;;6219043;23;20024;-91
2023/04/11 22:16:29;;;;;;;7.30;2.58;;;7.50;99.90;;;;;;6197347;23;20024;-91
2023/04/11 22:19:17;;;;;;;10.68;3.40;;;7.50;99.90;;;;;;6218634;23;20081;-91
2023/04/11 22:22:07;;;;;;;8.98;3.22;;;7.40;99.90;;;;;;6200381;23;20036;-91
2023/04/11 22:24:58;;;;;;;11.20;3.78;;;7.40;99.90;;;;;;6207007;23;20024;-91
2023/04/11 22:27:53;;;;;;;9.80;3.63;;;7.30;99.90;;;;;;6233929;23;20025;-91
2023/04/11 22:30:45;;;;;;;9.65;3.45;;;7.20;99.90;;;;;;6205352;23;20086;-91
2023/04/11 22:33:32;;;;;;;12.30;4.25;;;7.10;99.90;;;;;;6223108;23;20052;-90
2023/04/11 22:36:20;;;;;;;15.05;6.93;;;7.10;99.90;;;;;;6213204;23;20024;-91
2023/04/11 22:39:08;;;;;;;11.27;5.10;;;7.00;99.90;;;;;;6234003;23;20024;-92
2023/04/11 22:41:55;;;;;;;9.43;4.15;;;7.00;99.90;;;;;;6232083;23;20020;-90
2023/04/11 22:44:43;;;;;;;9.48;3.63;;;6.90;99.90;;;;;;6199022;23;20021;-91
2023/04/11 22:47:32;;;;;;;8.63;3.33;;;6.90;99.90;;;;;;6217044;23;20025;-91
2023/04/11 22:50:20;;;;;;;8.75;3.60;;;6.90;99.90;;;;;;6218219;23;20036;-91
2023/04/11 22:53:08;;;;;;;10.10;4.03;;;6.90;99.90;;;;;;6199198;23;20056;-92
2023/04/11 22:55:56;;;;;;;8.20;3.13;;;7.00;99.90;;;;;;6219781;23;20442;-91
2023/04/11 22:58:44;;;;;;;12.90;3.17;;;7.00;99.90;;;;;;6196795;23;20431;-91
2023/04/11 23:01:34;;;;;;;6.35;2.75;;;7.20;99.90;;;;;;6203322;23;20028;-90
2023/04/11 23:04:22;;;;;;;7.38;2.63;;;7.30;99.90;;;;;;6201729;23;20331;-91
2023/04/11 23:07:10;;;;;;;5.70;2.28;;;7.40;99.90;;;;;;6197898;23;20024;-90
2023/04/11 23:10:01;;;;;;;8.68;2.83;;;7.40;99.90;;;;;;6198026;23;20071;-91
2023/04/11 23:12:49;;;;;;;9.18;2.47;;;7.60;99.90;;;;;;6196985;23;20028;-90
2023/04/11 23:15:38;;;;;;;9.60;2.45;;;7.60;99.90;;;;;;6197599;23;20323;-90
2023/04/11 23:18:27;;;;;;;5.88;2.22;;;7.60;99.90;;;;;;6199052;23;20646;-90
2023/04/11 23:21:34;;;;;;;5.18;2.78;;;7.60;99.90;;;;;;6198788;23;20184;-90
2023/04/11 23:24:29;;;;;;;6.68;2.38;;;7.70;99.90;;;;;;6198027;23;20032;-91
2023/04/11 23:27:23;;;;;;;7.20;2.75;;;7.80;99.90;;;;;;6218876;23;20028;-90
2023/04/11 23:30:11;;;;;;;;;;;7.90;99.90;;;;;;6198633;23;20024;-88
2023/04/11 23:33:20;;;;;;;11.13;2.65;;;8.00;99.90;;;;;;6219398;23;19915;-92
2023/04/11 23:36:19;;;;;;;8.40;2.67;;;8.10;99.90;;;;;;6218702;23;20025;-93
2023/04/11 23:39:07;;;;;;;8.10;2.67;;;8.10;99.90;;;;;;6197472;23;20796;-93
2023/04/11 23:42:00;;;;;;;9.05;2.80;;;8.10;99.90;;;;;;6218801;23;20025;-91
2023/04/11 23:44:56;;;;;;;9.35;2.63;;;8.10;99.90;;;;;;6217849;23;20098;-91
2023/04/11 23:47:51;;;;;;;9.57;2.75;;;7.90;99.90;;;;;;6219842;23;20459;-89
2023/04/11 23:50:39;;;;;;;7.63;2.42;;;7.80;99.90;;;;;;6197929;23;20024;-89
2023/04/11 23:53:30;;;;;;;10.63;2.90;;;7.70;99.90;;;;;;6205488;23;20055;-90
2023/04/11 23:56:26;;;;;;;7.03;3.20;;;7.60;99.90;;;;;;6229688;23;20028;-89
2023/04/11 23:59:18;;;;;;;5.80;2.90;;;7.50;99.90;;;;;;6211325;23;20032;-89
